sensor_id;sensor_type;location;lat;lon;timestamp;P1;durP1;ratioP1;P2;durP2;ratioP2
52554;SDS011;38455;52.710;6.502;2023-06-24T00:02:19;7.88;;;6.00;;
52554;SDS011;38455;52.710;6.502;2023-06-24T00:04:49;8.95;;;5.97;;
52554;SDS011;38455;52.710;6.502;2023-06-24T00:07:15;7.93;;;6.10;;
52554;SDS011;38455;52.710;6.502;2023-06-24T00:09:41;9.00;;;5.90;;
52554;SDS011;38455;52.710;6.502;2023-06-24T00:12:07;9.32;;;6.18;;
52554;SDS011;38455;52.710;6.502;2023-06-24T00:14:33;6.85;;;5.60;;
52554;SDS011;38455;52.710;6.502;2023-06-24T00:16:58;8.95;;;5.97;;
52554;SDS011;38455;52.710;6.502;2023-06-24T00:19:25;10.88;;;6.80;;
52554;SDS011;38455;52.710;6.502;2023-06-24T00:21:52;8.27;;;6.43;;
52554;SDS011;38455;52.710;6.502;2023-06-24T00:24:21;7.38;;;6.07;;
52554;SDS011;38455;52.710;6.502;2023-06-24T00:26:53;8.70;;;6.82;;
52554;SDS011;38455;52.710;6.502;2023-06-24T00:29:18;10.13;;;6.70;;
52554;SDS011;38455;52.710;6.502;2023-06-24T00:31:44;11.73;;;6.70;;
52554;SDS011;38455;52.710;6.502;2023-06-24T00:34:10;11.90;;;7.60;;
52554;SDS011;38455;52.710;6.502;2023-06-24T00:36:36;9.65;;;7.30;;
52554;SDS011;38455;52.710;6.502;2023-06-24T00:39:03;13.98;;;8.30;;
52554;SDS011;38455;52.710;6.502;2023-06-24T00:41:35;10.13;;;7.43;;
52554;SDS011;38455;52.710;6.502;2023-06-24T00:44:01;12.45;;;7.65;;
52554;SDS011;38455;52.710;6.502;2023-06-24T00:46:27;9.57;;;7.38;;
52554;SDS011;38455;52.710;6.502;2023-06-24T00:48:54;10.20;;;7.70;;
52554;SDS011;38455;52.710;6.502;2023-06-24T00:51:21;10.52;;;7.97;;
52554;SDS011;38455;52.710;6.502;2023-06-24T00:53:51;11.10;;;7.88;;
52554;SDS011;38455;52.710;6.502;2023-06-24T00:56:41;9.85;;;7.80;;
52554;SDS011;38455;52.710;6.502;2023-06-24T00:59:08;10.48;;;7.60;;
52554;SDS011;38455;52.710;6.502;2023-06-24T01:01:37;13.10;;;8.48;;
52554;SDS011;38455;52.710;6.502;2023-06-24T01:04:03;10.65;;;7.90;;
52554;SDS011;38455;52.710;6.502;2023-06-24T01:06:30;10.77;;;8.80;;
52554;SDS011;38455;52.710;6.502;2023-06-24T01:08:56;11.48;;;8.27;;
52554;SDS011;38455;52.710;6.502;2023-06-24T01:11:23;10.00;;;7.47;;
52554;SDS011;38455;52.710;6.502;2023-06-24T01:13:49;11.43;;;8.30;;
52554;SDS011;38455;52.710;6.502;2023-06-24T01:16:19;10.05;;;8.05;;
52554;SDS011;38455;52.710;6.502;2023-06-24T01:18:48;13.32;;;7.88;;
52554;SDS011;38455;52.710;6.502;2023-06-24T01:21:31;10.02;;;7.95;;
52554;SDS011;38455;52.710;6.502;2023-06-24T01:27:45;15.68;;;8.77;;
52554;SDS011;38455;52.710;6.502;2023-06-24T01:34:57;10.10;;;8.38;;
52554;SDS011;38455;52.710;6.502;2023-06-24T01:37:28;13.35;;;9.05;;
52554;SDS011;38455;52.710;6.502;2023-06-24T01:40:01;14.15;;;9.13;;
52554;SDS011;38455;52.710;6.502;2023-06-24T01:42:36;12.93;;;9.10;;
52554;SDS011;38455;52.710;6.502;2023-06-24T01:45:04;14.07;;;10.82;;
52554;SDS011;38455;52.710;6.502;2023-06-24T01:47:34;15.45;;;10.68;;
52554;SDS011;38455;52.710;6.502;2023-06-24T01:50:01;15.73;;;11.65;;
52554;SDS011;38455;52.710;6.502;2023-06-24T01:52:29;14.35;;;11.00;;
52554;SDS011;38455;52.710;6.502;2023-06-24T01:54:59;17.15;;;12.27;;
52554;SDS011;38455;52.710;6.502;2023-06-24T01:57:26;14.70;;;11.38;;
52554;SDS011;38455;52.710;6.502;2023-06-24T01:59:55;17.90;;;11.60;;
52554;SDS011;38455;52.710;6.502;2023-06-24T02:02:22;14.95;;;10.95;;
52554;SDS011;38455;52.710;6.502;2023-06-24T02:04:50;16.92;;;11.52;;
52554;SDS011;38455;52.710;6.502;2023-06-24T02:07:18;16.10;;;12.43;;
52554;SDS011;38455;52.710;6.502;2023-06-24T02:09:45;17.55;;;12.30;;
52554;SDS011;38455;52.710;6.502;2023-06-24T02:12:11;15.38;;;11.75;;
52554;SDS011;38455;52.710;6.502;2023-06-24T02:14:37;16.30;;;11.43;;
52554;SDS011;38455;52.710;6.502;2023-06-24T02:17:05;17.90;;;11.60;;
52554;SDS011;38455;52.710;6.502;2023-06-24T02:19:33;17.27;;;12.55;;
52554;SDS011;38455;52.710;6.502;2023-06-24T02:22:01;14.38;;;11.40;;
52554;SDS011;38455;52.710;6.502;2023-06-24T02:24:27;16.33;;;11.75;;
52554;SDS011;38455;52.710;6.502;2023-06-24T02:26:56;16.52;;;12.63;;
52554;SDS011;38455;52.710;6.502;2023-06-24T02:29:24;14.02;;;12.27;;
52554;SDS011;38455;52.710;6.502;2023-06-24T02:31:52;16.10;;;12.57;;
52554;SDS011;38455;52.710;6.502;2023-06-24T02:34:19;15.20;;;11.35;;
52554;SDS011;38455;52.710;6.502;2023-06-24T02:36:45;15.45;;;12.43;;
52554;SDS011;38455;52.710;6.502;2023-06-24T02:39:11;16.45;;;12.00;;
52554;SDS011;38455;52.710;6.502;2023-06-24T02:41:36;14.93;;;11.95;;
52554;SDS011;38455;52.710;6.502;2023-06-24T02:44:02;16.65;;;11.73;;
52554;SDS011;38455;52.710;6.502;2023-06-24T02:46:28;17.85;;;12.02;;
52554;SDS011;38455;52.710;6.502;2023-06-24T02:48:56;14.57;;;11.57;;
52554;SDS011;38455;52.710;6.502;2023-06-24T02:51:23;21.58;;;12.15;;
52554;SDS011;38455;52.710;6.502;2023-06-24T02:53:49;16.25;;;11.85;;
52554;SDS011;38455;52.710;6.502;2023-06-24T02:56:15;17.83;;;12.05;;
52554;SDS011;38455;52.710;6.502;2023-06-24T02:58:45;17.10;;;11.75;;
52554;SDS011;38455;52.710;6.502;2023-06-24T03:01:12;19.25;;;12.57;;
52554;SDS011;38455;52.710;6.502;2023-06-24T03:03:40;20.05;;;13.95;;
52554;SDS011;38455;52.710;6.502;2023-06-24T03:06:06;17.75;;;13.00;;
52554;SDS011;38455;52.710;6.502;2023-06-24T03:08:32;19.05;;;12.90;;
52554;SDS011;38455;52.710;6.502;2023-06-24T03:10:59;17.58;;;12.23;;
52554;SDS011;38455;52.710;6.502;2023-06-24T03:13:24;17.27;;;12.48;;
52554;SDS011;38455;52.710;6.502;2023-06-24T03:15:51;17.77;;;12.82;;
52554;SDS011;38455;52.710;6.502;2023-06-24T03:18:16;20.67;;;12.55;;
52554;SDS011;38455;52.710;6.502;2023-06-24T03:20:43;16.55;;;12.25;;
52554;SDS011;38455;52.710;6.502;2023-06-24T03:23:09;21.38;;;12.90;;
52554;SDS011;38455;52.710;6.502;2023-06-24T03:25:34;17.60;;;12.80;;
52554;SDS011;38455;52.710;6.502;2023-06-24T03:28:00;18.77;;;13.63;;
52554;SDS011;38455;52.710;6.502;2023-06-24T03:30:28;20.55;;;13.98;;
52554;SDS011;38455;52.710;6.502;2023-06-24T03:32:55;20.10;;;13.15;;
52554;SDS011;38455;52.710;6.502;2023-06-24T03:35:20;16.88;;;13.40;;
52554;SDS011;38455;52.710;6.502;2023-06-24T03:37:47;19.88;;;13.05;;
52554;SDS011;38455;52.710;6.502;2023-06-24T03:40:13;16.48;;;13.40;;
52554;SDS011;38455;52.710;6.502;2023-06-24T03:42:39;24.20;;;13.63;;
52554;SDS011;38455;52.710;6.502;2023-06-24T03:45:05;21.80;;;13.80;;
52554;SDS011;38455;52.710;6.502;2023-06-24T03:47:31;20.15;;;13.77;;
52554;SDS011;38455;52.710;6.502;2023-06-24T03:49:57;18.25;;;13.80;;
52554;SDS011;38455;52.710;6.502;2023-06-24T03:52:22;21.63;;;14.32;;
52554;SDS011;38455;52.710;6.502;2023-06-24T03:54:48;22.67;;;13.38;;
52554;SDS011;38455;52.710;6.502;2023-06-24T03:57:14;19.95;;;13.77;;
52554;SDS011;38455;52.710;6.502;2023-06-24T03:59:40;21.02;;;14.35;;
52554;SDS011;38455;52.710;6.502;2023-06-24T04:02:06;24.58;;;15.07;;
52554;SDS011;38455;52.710;6.502;2023-06-24T04:04:34;18.13;;;13.73;;
52554;SDS011;38455;52.710;6.502;2023-06-24T04:07:01;19.67;;;12.85;;
52554;SDS011;38455;52.710;6.502;2023-06-24T04:09:26;21.88;;;14.75;;
52554;SDS011;38455;52.710;6.502;2023-06-24T04:11:53;22.52;;;13.23;;
52554;SDS011;38455;52.710;6.502;2023-06-24T04:14:19;23.08;;;15.38;;
52554;SDS011;38455;52.710;6.502;2023-06-24T04:16:45;20.45;;;13.77;;
52554;SDS011;38455;52.710;6.502;2023-06-24T04:19:10;20.83;;;13.18;;
52554;SDS011;38455;52.710;6.502;2023-06-24T04:21:36;21.25;;;13.85;;
52554;SDS011;38455;52.710;6.502;2023-06-24T04:24:02;18.05;;;13.45;;
52554;SDS011;38455;52.710;6.502;2023-06-24T04:26:28;18.67;;;13.93;;
52554;SDS011;38455;52.710;6.502;2023-06-24T04:28:55;19.85;;;13.85;;
52554;SDS011;38455;52.710;6.502;2023-06-24T04:31:20;19.33;;;13.63;;
52554;SDS011;38455;52.710;6.502;2023-06-24T04:33:46;21.70;;;14.38;;
52554;SDS011;38455;52.710;6.502;2023-06-24T04:36:12;20.48;;;14.23;;
52554;SDS011;38455;52.710;6.502;2023-06-24T04:38:37;23.25;;;14.55;;
52554;SDS011;38455;52.710;6.502;2023-06-24T04:41:03;23.85;;;14.75;;
52554;SDS011;38455;52.710;6.502;2023-06-24T04:43:29;21.15;;;14.15;;
52554;SDS011;38455;52.710;6.502;2023-06-24T04:45:54;24.63;;;15.25;;
52554;SDS011;38455;52.710;6.502;2023-06-24T04:48:24;18.08;;;13.73;;
52554;SDS011;38455;52.710;6.502;2023-06-24T04:50:51;16.85;;;12.88;;
52554;SDS011;38455;52.710;6.502;2023-06-24T04:53:18;21.92;;;13.85;;
52554;SDS011;38455;52.710;6.502;2023-06-24T04:55:44;17.40;;;13.38;;
52554;SDS011;38455;52.710;6.502;2023-06-24T04:58:10;16.30;;;13.15;;
52554;SDS011;38455;52.710;6.502;2023-06-24T05:00:35;17.98;;;13.23;;
52554;SDS011;38455;52.710;6.502;2023-06-24T05:03:01;18.95;;;12.90;;
52554;SDS011;38455;52.710;6.502;2023-06-24T05:05:27;15.77;;;11.93;;
52554;SDS011;38455;52.710;6.502;2023-06-24T05:07:52;17.30;;;12.95;;
52554;SDS011;38455;52.710;6.502;2023-06-24T05:10:18;17.17;;;12.90;;
52554;SDS011;38455;52.710;6.502;2023-06-24T05:12:44;18.77;;;13.65;;
52554;SDS011;38455;52.710;6.502;2023-06-24T05:15:10;16.58;;;12.02;;
52554;SDS011;38455;52.710;6.502;2023-06-24T05:17:36;16.48;;;13.48;;
52554;SDS011;38455;52.710;6.502;2023-06-24T05:20:02;14.65;;;13.02;;
52554;SDS011;38455;52.710;6.502;2023-06-24T05:22:28;16.55;;;13.30;;
52554;SDS011;38455;52.710;6.502;2023-06-24T05:24:54;17.58;;;13.35;;
52554;SDS011;38455;52.710;6.502;2023-06-24T05:27:20;19.05;;;13.68;;
52554;SDS011;38455;52.710;6.502;2023-06-24T05:29:45;16.20;;;12.60;;
52554;SDS011;38455;52.710;6.502;2023-06-24T05:32:11;17.02;;;13.05;;
52554;SDS011;38455;52.710;6.502;2023-06-24T05:34:37;15.70;;;12.00;;
52554;SDS011;38455;52.710;6.502;2023-06-24T05:37:03;19.00;;;13.25;;
52554;SDS011;38455;52.710;6.502;2023-06-24T05:39:29;18.75;;;12.65;;
52554;SDS011;38455;52.710;6.502;2023-06-24T05:41:56;15.20;;;12.40;;
52554;SDS011;38455;52.710;6.502;2023-06-24T05:44:21;16.83;;;11.70;;
52554;SDS011;38455;52.710;6.502;2023-06-24T05:46:48;17.48;;;11.93;;
52554;SDS011;38455;52.710;6.502;2023-06-24T05:49:14;14.27;;;11.48;;
52554;SDS011;38455;52.710;6.502;2023-06-24T05:51:39;14.80;;;10.35;;
52554;SDS011;38455;52.710;6.502;2023-06-24T05:54:05;14.73;;;10.82;;
52554;SDS011;38455;52.710;6.502;2023-06-24T05:56:32;14.35;;;9.90;;
52554;SDS011;38455;52.710;6.502;2023-06-24T05:58:58;12.00;;;10.63;;
52554;SDS011;38455;52.710;6.502;2023-06-24T06:01:24;13.25;;;10.68;;
52554;SDS011;38455;52.710;6.502;2023-06-24T06:03:50;12.10;;;10.05;;
52554;SDS011;38455;52.710;6.502;2023-06-24T06:06:16;11.70;;;9.27;;
52554;SDS011;38455;52.710;6.502;2023-06-24T06:08:41;12.07;;;9.07;;
52554;SDS011;38455;52.710;6.502;2023-06-24T06:11:07;11.57;;;8.70;;
52554;SDS011;38455;52.710;6.502;2023-06-24T06:13:33;11.05;;;8.80;;
52554;SDS011;38455;52.710;6.502;2023-06-24T06:15:58;12.43;;;8.77;;
52554;SDS011;38455;52.710;6.502;2023-06-24T06:18:24;11.15;;;8.98;;
52554;SDS011;38455;52.710;6.502;2023-06-24T06:20:50;10.43;;;7.40;;
52554;SDS011;38455;52.710;6.502;2023-06-24T06:23:17;12.10;;;8.07;;
52554;SDS011;38455;52.710;6.502;2023-06-24T06:25:43;10.73;;;7.93;;
52554;SDS011;38455;52.710;6.502;2023-06-24T06:28:09;10.35;;;8.23;;
52554;SDS011;38455;52.710;6.502;2023-06-24T06:30:35;11.65;;;8.32;;
52554;SDS011;38455;52.710;6.502;2023-06-24T06:33:00;8.98;;;7.97;;
52554;SDS011;38455;52.710;6.502;2023-06-24T06:35:26;10.07;;;8.20;;
52554;SDS011;38455;52.710;6.502;2023-06-24T06:37:52;12.82;;;8.45;;
52554;SDS011;38455;52.710;6.502;2023-06-24T06:40:21;10.43;;;8.18;;
52554;SDS011;38455;52.710;6.502;2023-06-24T06:42:47;11.48;;;9.45;;
52554;SDS011;38455;52.710;6.502;2023-06-24T06:45:14;11.00;;;9.57;;
52554;SDS011;38455;52.710;6.502;2023-06-24T06:47:40;11.07;;;9.13;;
52554;SDS011;38455;52.710;6.502;2023-06-24T06:50:06;14.02;;;9.88;;
52554;SDS011;38455;52.710;6.502;2023-06-24T06:52:33;12.73;;;9.23;;
52554;SDS011;38455;52.710;6.502;2023-06-24T06:54:59;11.70;;;9.50;;
52554;SDS011;38455;52.710;6.502;2023-06-24T06:57:25;13.07;;;9.45;;
52554;SDS011;38455;52.710;6.502;2023-06-24T06:59:50;11.95;;;8.85;;
52554;SDS011;38455;52.710;6.502;2023-06-24T07:02:16;11.50;;;8.85;;
52554;SDS011;38455;52.710;6.502;2023-06-24T07:04:43;12.77;;;9.63;;
52554;SDS011;38455;52.710;6.502;2023-06-24T07:07:08;10.10;;;8.77;;
52554;SDS011;38455;52.710;6.502;2023-06-24T07:09:34;10.90;;;8.98;;
52554;SDS011;38455;52.710;6.502;2023-06-24T07:12:00;10.32;;;9.15;;
52554;SDS011;38455;52.710;6.502;2023-06-24T07:14:26;11.85;;;8.95;;
52554;SDS011;38455;52.710;6.502;2023-06-24T07:16:52;10.75;;;9.25;;
52554;SDS011;38455;52.710;6.502;2023-06-24T07:19:18;12.88;;;7.95;;
52554;SDS011;38455;52.710;6.502;2023-06-24T07:21:43;11.30;;;8.40;;
52554;SDS011;38455;52.710;6.502;2023-06-24T07:24:09;13.88;;;7.95;;
52554;SDS011;38455;52.710;6.502;2023-06-24T07:26:35;9.93;;;7.97;;
52554;SDS011;38455;52.710;6.502;2023-06-24T07:29:01;9.15;;;7.95;;
52554;SDS011;38455;52.710;6.502;2023-06-24T07:31:26;12.02;;;8.07;;
52554;SDS011;38455;52.710;6.502;2023-06-24T07:33:52;10.43;;;7.68;;
52554;SDS011;38455;52.710;6.502;2023-06-24T07:36:18;11.25;;;7.55;;
52554;SDS011;38455;52.710;6.502;2023-06-24T07:38:44;10.23;;;8.23;;
52554;SDS011;38455;52.710;6.502;2023-06-24T07:41:09;10.57;;;8.32;;
52554;SDS011;38455;52.710;6.502;2023-06-24T07:43:35;10.32;;;8.23;;
52554;SDS011;38455;52.710;6.502;2023-06-24T07:46:01;10.45;;;7.63;;
52554;SDS011;38455;52.710;6.502;2023-06-24T07:48:27;10.40;;;8.25;;
52554;SDS011;38455;52.710;6.502;2023-06-24T07:50:53;10.15;;;8.07;;
52554;SDS011;38455;52.710;6.502;2023-06-24T07:53:18;10.73;;;8.02;;
52554;SDS011;38455;52.710;6.502;2023-06-24T07:55:44;12.00;;;8.27;;
52554;SDS011;38455;52.710;6.502;2023-06-24T07:58:10;10.48;;;8.05;;
52554;SDS011;38455;52.710;6.502;2023-06-24T08:00:36;11.65;;;8.52;;
52554;SDS011;38455;52.710;6.502;2023-06-24T08:03:02;8.52;;;7.50;;
52554;SDS011;38455;52.710;6.502;2023-06-24T08:05:28;9.95;;;7.35;;
52554;SDS011;38455;52.710;6.502;2023-06-24T08:07:54;10.30;;;8.30;;
52554;SDS011;38455;52.710;6.502;2023-06-24T08:10:20;9.13;;;7.97;;
52554;SDS011;38455;52.710;6.502;2023-06-24T08:12:46;11.38;;;8.50;;
52554;SDS011;38455;52.710;6.502;2023-06-24T08:15:11;12.63;;;8.40;;
52554;SDS011;38455;52.710;6.502;2023-06-24T08:17:37;9.05;;;7.70;;
52554;SDS011;38455;52.710;6.502;2023-06-24T08:20:03;10.93;;;8.23;;
52554;SDS011;38455;52.710;6.502;2023-06-24T08:22:29;9.45;;;7.88;;
52554;SDS011;38455;52.710;6.502;2023-06-24T08:24:55;9.45;;;7.70;;
52554;SDS011;38455;52.710;6.502;2023-06-24T08:27:21;12.20;;;7.60;;
52554;SDS011;38455;52.710;6.502;2023-06-24T08:29:47;8.50;;;6.88;;
52554;SDS011;38455;52.710;6.502;2023-06-24T08:32:13;7.85;;;6.65;;
52554;SDS011;38455;52.710;6.502;2023-06-24T08:34:38;6.95;;;5.53;;
52554;SDS011;38455;52.710;6.502;2023-06-24T08:37:04;10.98;;;6.10;;
52554;SDS011;38455;52.710;6.502;2023-06-24T08:39:30;6.65;;;5.40;;
52554;SDS011;38455;52.710;6.502;2023-06-24T08:41:56;6.20;;;4.00;;
52554;SDS011;38455;52.710;6.502;2023-06-24T08:44:21;4.47;;;3.25;;
52554;SDS011;38455;52.710;6.502;2023-06-24T08:46:47;7.20;;;3.25;;
52554;SDS011;38455;52.710;6.502;2023-06-24T08:54:15;5.55;;;3.85;;
52554;SDS011;38455;52.710;6.502;2023-06-24T08:56:44;4.05;;;2.97;;
52554;SDS011;38455;52.710;6.502;2023-06-24T08:59:10;5.85;;;3.20;;
52554;SDS011;38455;52.710;6.502;2023-06-24T09:01:36;6.70;;;4.25;;
52554;SDS011;38455;52.710;6.502;2023-06-24T09:04:02;3.67;;;2.50;;
52554;SDS011;38455;52.710;6.502;2023-06-24T09:06:29;6.20;;;2.85;;
52554;SDS011;38455;52.710;6.502;2023-06-24T09:08:57;4.65;;;3.67;;
52554;SDS011;38455;52.710;6.502;2023-06-24T09:11:26;6.40;;;3.30;;
52554;SDS011;38455;52.710;6.502;2023-06-24T09:13:59;7.35;;;3.13;;
52554;SDS011;38455;52.710;6.502;2023-06-24T09:16:26;4.10;;;3.13;;
52554;SDS011;38455;52.710;6.502;2023-06-24T09:18:53;3.05;;;2.50;;
52554;SDS011;38455;52.710;6.502;2023-06-24T09:21:22;3.90;;;2.55;;
52554;SDS011;38455;52.710;6.502;2023-06-24T09:23:55;3.95;;;2.80;;
52554;SDS011;38455;52.710;6.502;2023-06-24T09:26:23;6.57;;;3.60;;
52554;SDS011;38455;52.710;6.502;2023-06-24T09:28:49;5.47;;;3.28;;
52554;SDS011;38455;52.710;6.502;2023-06-24T09:31:16;8.45;;;3.38;;
52554;SDS011;38455;52.710;6.502;2023-06-24T09:33:43;4.72;;;3.08;;
52554;SDS011;38455;52.710;6.502;2023-06-24T09:36:12;4.30;;;3.20;;
52554;SDS011;38455;52.710;6.502;2023-06-24T09:38:41;6.95;;;3.35;;
52554;SDS011;38455;52.710;6.502;2023-06-24T09:41:08;4.35;;;3.60;;
52554;SDS011;38455;52.710;6.502;2023-06-24T09:43:34;4.65;;;3.00;;
52554;SDS011;38455;52.710;6.502;2023-06-24T09:46:06;9.05;;;3.33;;
52554;SDS011;38455;52.710;6.502;2023-06-24T09:48:35;7.35;;;3.95;;
52554;SDS011;38455;52.710;6.502;2023-06-24T09:51:01;4.90;;;3.60;;
52554;SDS011;38455;52.710;6.502;2023-06-24T09:53:35;4.13;;;3.53;;
52554;SDS011;38455;52.710;6.502;2023-06-24T09:56:07;6.78;;;3.80;;
52554;SDS011;38455;52.710;6.502;2023-06-24T09:58:37;4.57;;;3.63;;
52554;SDS011;38455;52.710;6.502;2023-06-24T10:01:05;5.80;;;4.15;;
52554;SDS011;38455;52.710;6.502;2023-06-24T10:03:32;4.70;;;4.20;;
52554;SDS011;38455;52.710;6.502;2023-06-24T10:06:01;4.90;;;3.75;;
52554;SDS011;38455;52.710;6.502;2023-06-24T10:08:29;7.93;;;3.83;;
52554;SDS011;38455;52.710;6.502;2023-06-24T10:10:55;4.60;;;3.42;;
52554;SDS011;38455;52.710;6.502;2023-06-24T10:13:21;4.22;;;3.33;;
52554;SDS011;38455;52.710;6.502;2023-06-24T10:15:48;8.05;;;3.45;;
52554;SDS011;38455;52.710;6.502;2023-06-24T10:21:03;4.72;;;2.90;;
52554;SDS011;38455;52.710;6.502;2023-06-24T10:26:09;5.28;;;3.10;;
52554;SDS011;38455;52.710;6.502;2023-06-24T10:36:55;5.72;;;2.70;;
52554;SDS011;38455;52.710;6.502;2023-06-24T10:39:40;3.00;;;2.58;;
52554;SDS011;38455;52.710;6.502;2023-06-24T10:44:52;4.03;;;2.17;;
52554;SDS011;38455;52.710;6.502;2023-06-24T10:47:19;6.07;;;2.60;;
52554;SDS011;38455;52.710;6.502;2023-06-24T10:49:46;3.85;;;2.40;;
52554;SDS011;38455;52.710;6.502;2023-06-24T10:52:12;2.60;;;2.25;;
52554;SDS011;38455;52.710;6.502;2023-06-24T10:54:39;4.00;;;2.58;;
52554;SDS011;38455;52.710;6.502;2023-06-24T10:57:05;3.92;;;2.65;;
52554;SDS011;38455;52.710;6.502;2023-06-24T10:59:42;2.83;;;2.30;;
52554;SDS011;38455;52.710;6.502;2023-06-24T11:02:27;6.32;;;2.63;;
52554;SDS011;38455;52.710;6.502;2023-06-24T11:04:54;4.75;;;2.28;;
52554;SDS011;38455;52.710;6.502;2023-06-24T11:07:31;6.97;;;2.35;;
52554;SDS011;38455;52.710;6.502;2023-06-24T11:12:35;5.22;;;2.67;;
52554;SDS011;38455;52.710;6.502;2023-06-24T11:15:08;3.55;;;2.60;;
52554;SDS011;38455;52.710;6.502;2023-06-24T11:17:36;6.90;;;2.95;;
52554;SDS011;38455;52.710;6.502;2023-06-24T11:20:10;4.20;;;2.15;;
52554;SDS011;38455;52.710;6.502;2023-06-24T11:22:37;3.58;;;2.35;;
52554;SDS011;38455;52.710;6.502;2023-06-24T11:25:04;4.60;;;2.40;;
52554;SDS011;38455;52.710;6.502;2023-06-24T11:27:30;4.15;;;2.60;;
52554;SDS011;38455;52.710;6.502;2023-06-24T11:30:00;3.92;;;2.22;;
52554;SDS011;38455;52.710;6.502;2023-06-24T11:32:39;4.95;;;2.78;;
52554;SDS011;38455;52.710;6.502;2023-06-24T11:35:06;6.55;;;1.92;;
52554;SDS011;38455;52.710;6.502;2023-06-24T11:37:35;3.15;;;2.30;;
52554;SDS011;38455;52.710;6.502;2023-06-24T11:40:02;3.60;;;2.20;;
52554;SDS011;38455;52.710;6.502;2023-06-24T11:42:30;5.15;;;2.30;;
52554;SDS011;38455;52.710;6.502;2023-06-24T11:45:03;4.22;;;2.08;;
52554;SDS011;38455;52.710;6.502;2023-06-24T11:47:36;4.97;;;2.08;;
52554;SDS011;38455;52.710;6.502;2023-06-24T11:50:07;4.05;;;2.70;;
52554;SDS011;38455;52.710;6.502;2023-06-24T11:52:37;4.93;;;2.60;;
52554;SDS011;38455;52.710;6.502;2023-06-24T11:55:26;3.60;;;2.75;;
52554;SDS011;38455;52.710;6.502;2023-06-24T12:00:28;2.63;;;1.80;;
52554;SDS011;38455;52.710;6.502;2023-06-24T12:03:00;3.88;;;2.38;;
52554;SDS011;38455;52.710;6.502;2023-06-24T12:05:28;3.70;;;2.20;;
52554;SDS011;38455;52.710;6.502;2023-06-24T12:07:59;3.53;;;2.55;;
52554;SDS011;38455;52.710;6.502;2023-06-24T12:10:31;10.02;;;3.22;;
52554;SDS011;38455;52.710;6.502;2023-06-24T12:12:58;4.43;;;2.95;;
52554;SDS011;38455;52.710;6.502;2023-06-24T12:15:28;4.47;;;2.67;;
52554;SDS011;38455;52.710;6.502;2023-06-24T12:17:55;4.55;;;2.65;;
52554;SDS011;38455;52.710;6.502;2023-06-24T12:20:21;4.05;;;2.47;;
52554;SDS011;38455;52.710;6.502;2023-06-24T12:22:47;2.60;;;2.40;;
52554;SDS011;38455;52.710;6.502;2023-06-24T12:25:13;3.05;;;2.08;;
52554;SDS011;38455;52.710;6.502;2023-06-24T12:27:41;3.83;;;2.20;;
52554;SDS011;38455;52.710;6.502;2023-06-24T12:30:07;2.60;;;2.13;;
52554;SDS011;38455;52.710;6.502;2023-06-24T12:32:33;4.10;;;2.50;;
52554;SDS011;38455;52.710;6.502;2023-06-24T12:34:59;3.53;;;2.63;;
52554;SDS011;38455;52.710;6.502;2023-06-24T12:37:25;4.63;;;2.30;;
52554;SDS011;38455;52.710;6.502;2023-06-24T12:39:53;3.17;;;2.40;;
52554;SDS011;38455;52.710;6.502;2023-06-24T12:42:19;3.47;;;1.90;;
52554;SDS011;38455;52.710;6.502;2023-06-24T12:44:45;2.60;;;2.05;;
52554;SDS011;38455;52.710;6.502;2023-06-24T12:47:10;3.95;;;2.40;;
52554;SDS011;38455;52.710;6.502;2023-06-24T12:49:36;6.35;;;2.30;;
52554;SDS011;38455;52.710;6.502;2023-06-24T12:52:02;3.20;;;2.60;;
52554;SDS011;38455;52.710;6.502;2023-06-24T12:54:27;4.05;;;2.50;;
52554;SDS011;38455;52.710;6.502;2023-06-24T12:56:53;2.40;;;2.00;;
52554;SDS011;38455;52.710;6.502;2023-06-24T12:59:19;3.05;;;2.70;;
52554;SDS011;38455;52.710;6.502;2023-06-24T13:01:44;2.88;;;2.22;;
52554;SDS011;38455;52.710;6.502;2023-06-24T13:04:11;3.95;;;2.42;;
52554;SDS011;38455;52.710;6.502;2023-06-24T13:06:37;4.70;;;2.20;;
52554;SDS011;38455;52.710;6.502;2023-06-24T13:09:02;3.30;;;2.17;;
52554;SDS011;38455;52.710;6.502;2023-06-24T13:11:28;3.53;;;2.05;;
52554;SDS011;38455;52.710;6.502;2023-06-24T13:13:54;3.35;;;2.30;;
52554;SDS011;38455;52.710;6.502;2023-06-24T13:16:20;4.68;;;2.60;;
52554;SDS011;38455;52.710;6.502;2023-06-24T13:18:46;3.78;;;2.40;;
52554;SDS011;38455;52.710;6.502;2023-06-24T13:21:12;3.08;;;2.20;;
52554;SDS011;38455;52.710;6.502;2023-06-24T13:23:38;3.67;;;2.83;;
52554;SDS011;38455;52.710;6.502;2023-06-24T13:26:05;3.47;;;2.42;;
52554;SDS011;38455;52.710;6.502;2023-06-24T13:28:31;6.65;;;4.18;;
52554;SDS011;38455;52.710;6.502;2023-06-24T13:30:57;8.18;;;2.88;;
52554;SDS011;38455;52.710;6.502;2023-06-24T13:33:23;3.33;;;2.70;;
52554;SDS011;38455;52.710;6.502;2023-06-24T13:35:49;4.53;;;3.10;;
52554;SDS011;38455;52.710;6.502;2023-06-24T13:38:16;3.00;;;2.53;;
52554;SDS011;38455;52.710;6.502;2023-06-24T13:40:42;4.95;;;3.03;;
52554;SDS011;38455;52.710;6.502;2023-06-24T13:43:08;4.65;;;2.45;;
52554;SDS011;38455;52.710;6.502;2023-06-24T13:45:33;4.05;;;3.00;;
52554;SDS011;38455;52.710;6.502;2023-06-24T13:47:59;4.43;;;2.70;;
52554;SDS011;38455;52.710;6.502;2023-06-24T13:50:25;4.30;;;2.42;;
52554;SDS011;38455;52.710;6.502;2023-06-24T13:52:50;4.72;;;2.28;;
52554;SDS011;38455;52.710;6.502;2023-06-24T13:55:16;3.70;;;2.22;;
52554;SDS011;38455;52.710;6.502;2023-06-24T13:57:42;6.95;;;2.30;;
52554;SDS011;38455;52.710;6.502;2023-06-24T14:00:08;4.00;;;2.38;;
52554;SDS011;38455;52.710;6.502;2023-06-24T14:02:34;4.95;;;2.40;;
52554;SDS011;38455;52.710;6.502;2023-06-24T14:05:00;3.67;;;2.85;;
52554;SDS011;38455;52.710;6.502;2023-06-24T14:07:26;3.65;;;2.60;;
52554;SDS011;38455;52.710;6.502;2023-06-24T14:09:51;5.70;;;2.83;;
52554;SDS011;38455;52.710;6.502;2023-06-24T14:12:17;5.35;;;2.72;;
52554;SDS011;38455;52.710;6.502;2023-06-24T14:14:43;4.82;;;2.47;;
52554;SDS011;38455;52.710;6.502;2023-06-24T14:17:09;4.63;;;2.53;;
52554;SDS011;38455;52.710;6.502;2023-06-24T14:19:36;5.07;;;2.28;;
52554;SDS011;38455;52.710;6.502;2023-06-24T14:22:06;2.92;;;2.13;;
52554;SDS011;38455;52.710;6.502;2023-06-24T14:24:32;3.15;;;2.30;;
52554;SDS011;38455;52.710;6.502;2023-06-24T14:26:58;3.97;;;2.20;;
52554;SDS011;38455;52.710;6.502;2023-06-24T14:29:24;3.47;;;2.53;;
52554;SDS011;38455;52.710;6.502;2023-06-24T14:31:51;4.75;;;2.70;;
52554;SDS011;38455;52.710;6.502;2023-06-24T14:34:17;6.53;;;2.63;;
52554;SDS011;38455;52.710;6.502;2023-06-24T14:36:43;3.88;;;2.33;;
52554;SDS011;38455;52.710;6.502;2023-06-24T14:39:09;4.65;;;2.50;;
52554;SDS011;38455;52.710;6.502;2023-06-24T14:41:37;3.78;;;2.78;;
52554;SDS011;38455;52.710;6.502;2023-06-24T14:44:03;3.55;;;2.30;;
52554;SDS011;38455;52.710;6.502;2023-06-24T14:46:29;3.08;;;2.33;;
52554;SDS011;38455;52.710;6.502;2023-06-24T14:48:54;4.75;;;2.40;;
52554;SDS011;38455;52.710;6.502;2023-06-24T14:51:20;3.67;;;2.25;;
52554;SDS011;38455;52.710;6.502;2023-06-24T14:53:46;4.15;;;2.38;;
52554;SDS011;38455;52.710;6.502;2023-06-24T14:56:11;3.08;;;2.28;;
52554;SDS011;38455;52.710;6.502;2023-06-24T14:58:37;6.00;;;2.20;;
52554;SDS011;38455;52.710;6.502;2023-06-24T15:01:03;3.42;;;2.20;;
52554;SDS011;38455;52.710;6.502;2023-06-24T15:03:28;2.45;;;2.00;;
52554;SDS011;38455;52.710;6.502;2023-06-24T15:05:54;3.58;;;2.30;;
52554;SDS011;38455;52.710;6.502;2023-06-24T15:08:20;3.20;;;2.70;;
52554;SDS011;38455;52.710;6.502;2023-06-24T15:10:45;4.70;;;2.30;;